createdAt,value
2019-02-27T00:00:15.509Z,2.52
2019-02-27T00:02:48.550Z,2.49
2019-02-27T00:05:21.637Z,2.40
2019-02-27T00:07:54.847Z,2.44
2019-02-27T00:10:28.896Z,2.34
2019-02-27T00:13:02.258Z,2.27
2019-02-27T00:15:37.740Z,2.18
2019-02-27T00:18:10.189Z,2.13
2019-02-27T00:20:43.803Z,2.01
2019-02-27T00:23:17.235Z,2.03
2019-02-27T00:25:50.004Z,2.04
2019-02-27T00:28:23.891Z,1.78
2019-02-27T00:30:57.587Z,1.68
2019-02-27T00:33:29.315Z,1.59
2019-02-27T00:36:02.012Z,1.64
2019-02-27T00:38:34.692Z,1.57
2019-02-27T00:41:12.046Z,1.43
2019-02-27T00:43:42.117Z,1.41
2019-02-27T00:46:15.274Z,1.31
2019-02-27T00:48:48.472Z,1.20
2019-02-27T00:51:22.193Z,1.14
2019-02-27T00:53:55.933Z,1.17
2019-02-27T00:56:31.998Z,1.14
2019-02-27T00:59:04.691Z,1.02
2019-02-27T01:01:37.888Z,1.07
2019-02-27T01:04:11.138Z,1.07
2019-02-27T01:06:45.059Z,1.05
2019-02-27T01:09:20.378Z,1.07
2019-02-27T01:11:53.749Z,1.04
2019-02-27T01:14:26.232Z,1.04
2019-02-27T01:16:59.099Z,0.98
2019-02-27T01:19:32.665Z,0.87
2019-02-27T01:22:05.598Z,0.92
2019-02-27T01:24:38.657Z,0.94
2019-02-27T01:27:11.813Z,0.90
2019-02-27T01:29:45.690Z,0.90
2019-02-27T01:32:19.588Z,0.95
2019-02-27T01:34:53.106Z,0.96
2019-02-27T01:37:25.964Z,0.92
2019-02-27T01:39:58.707Z,0.91
2019-02-27T01:42:32.973Z,0.77
2019-02-27T01:45:09.241Z,0.70
2019-02-27T01:47:43.129Z,0.72
2019-02-27T01:50:34.131Z,0.62
2019-02-27T01:53:09.075Z,0.57
2019-02-27T01:55:41.858Z,0.51
2019-02-27T01:58:14.611Z,0.37
2019-02-27T02:00:48.152Z,0.31
2019-02-27T02:03:21.497Z,0.30
2019-02-27T02:05:58.843Z,0.28
2019-02-27T02:08:29.212Z,0.24
2019-02-27T02:11:02.129Z,0.20
2019-02-27T02:13:53.787Z,0.04
2019-02-27T02:16:47.223Z,0.03
2019-02-27T02:19:48.781Z,-0.03
2019-02-27T02:23:20.548Z,0.05
2019-02-27T02:26:43.849Z,-0.05
2019-02-27T02:30:07.470Z,-0.15
2019-02-27T02:33:31.053Z,-0.17
2019-02-27T02:37:03.805Z,-0.19
2019-02-27T02:40:04.512Z,-0.27
2019-02-27T02:43:41.575Z,-0.35
2019-02-27T02:46:55.061Z,-0.35
2019-02-27T02:50:29.045Z,-0.36
2019-02-27T02:54:01.728Z,-0.43
2019-02-27T02:57:05.084Z,-0.40
2019-02-27T03:00:27.237Z,-0.36
2019-02-27T03:04:06.036Z,-0.44
2019-02-27T03:07:30.677Z,-0.45
2019-02-27T03:10:20.943Z,-0.31
2019-02-27T03:13:47.365Z,-0.40
2019-02-27T03:17:53.695Z,-0.48
2019-02-27T03:21:27.376Z,-0.46
2019-02-27T03:24:50.787Z,-0.50
2019-02-27T03:28:27.172Z,-0.51
2019-02-27T03:31:42.341Z,-0.58
2019-02-27T03:35:18.354Z,-0.65
2019-02-27T03:38:24.099Z,-0.73
2019-02-27T03:41:36.176Z,-0.66
2019-02-27T03:45:09.991Z,-0.55
2019-02-27T03:48:35.259Z,-0.50
2019-02-27T03:51:48.061Z,-0.54
2019-02-27T03:54:59.337Z,-0.48
2019-02-27T03:58:30.643Z,-0.48
2019-02-27T04:02:12.074Z,-0.45
2019-02-27T04:05:53.989Z,-0.55
2019-02-27T04:08:55.352Z,-0.61
2019-02-27T04:11:28.059Z,-0.61
2019-02-27T04:14:04.714Z,-0.61
2019-02-27T04:16:38.141Z,-0.57
2019-02-27T04:19:10.585Z,-0.59
2019-02-27T04:21:43.964Z,-0.62
2019-02-27T04:24:15.297Z,-0.69
2019-02-27T04:26:48.131Z,-0.73
2019-02-27T04:29:21.879Z,-0.81
2019-02-27T04:31:54.413Z,-0.84
2019-02-27T04:34:27.117Z,-0.82
2019-02-27T04:36:59.808Z,-0.90
2019-02-27T04:39:32.900Z,-0.98
2019-02-27T04:42:05.435Z,-0.99
2019-02-27T04:44:39.054Z,-0.99
2019-02-27T04:47:12.125Z,-1.05
2019-02-27T04:49:44.757Z,-1.02
2019-02-27T04:52:18.055Z,-1.08
2019-02-27T04:54:49.719Z,-1.10
2019-02-27T04:57:22.365Z,-0.90
2019-02-27T04:59:55.763Z,-1.08
2019-02-27T05:02:28.886Z,-1.19
2019-02-27T05:05:01.772Z,-1.21
2019-02-27T05:07:34.894Z,-1.19
2019-02-27T05:10:07.938Z,-1.16
2019-02-27T05:12:39.459Z,-1.16
2019-02-27T05:15:11.841Z,-1.19
2019-02-27T05:17:45.313Z,-1.25
2019-02-27T05:20:17.795Z,-1.36
2019-02-27T05:22:50.803Z,-1.39
2019-02-27T05:25:23.596Z,-1.36
2019-02-27T05:28:01.017Z,-1.31
2019-02-27T05:30:31.621Z,-1.37
2019-02-27T05:33:03.658Z,-1.45
2019-02-27T05:35:35.655Z,-1.40
2019-02-27T05:38:08.210Z,-1.44
2019-02-27T05:40:41.396Z,-1.42
2019-02-27T05:43:15.522Z,-1.41
2019-02-27T05:45:47.929Z,-1.45
2019-02-27T05:48:21.052Z,-1.50
2019-02-27T05:50:53.756Z,-1.47
2019-02-27T05:53:27.238Z,-1.39
2019-02-27T05:55:59.614Z,-1.52
2019-02-27T05:58:33.120Z,-1.52
2019-02-27T06:01:05.902Z,-1.48
2019-02-27T06:03:39.329Z,-1.45
2019-02-27T06:06:12.453Z,-1.49
2019-02-27T06:08:45.586Z,-1.50
2019-02-27T06:11:16.908Z,-1.51
2019-02-27T06:13:48.967Z,-1.64
2019-02-27T06:16:22.299Z,-1.58
2019-02-27T06:18:56.276Z,-1.57
2019-02-27T06:21:31.539Z,-1.60
2019-02-27T06:24:04.645Z,-1.56
2019-02-27T06:26:36.989Z,-1.53
2019-02-27T06:29:09.899Z,-1.62
2019-02-27T06:31:41.841Z,-1.62
2019-02-27T06:34:15.240Z,-1.60
2019-02-27T06:36:49.553Z,-1.57
2019-02-27T06:39:22.380Z,-1.55
2019-02-27T06:41:55.125Z,-1.62
2019-02-27T06:44:29.019Z,-1.64
2019-02-27T06:47:01.469Z,-1.63
2019-02-27T06:49:34.579Z,-1.35
2019-02-27T06:52:09.264Z,-1.27
2019-02-27T06:54:42.376Z,-1.36
2019-02-27T06:57:15.568Z,-1.33
2019-02-27T06:59:46.989Z,-1.21
2019-02-27T07:02:21.711Z,-1.10
2019-02-27T07:04:53.701Z,-0.97
2019-02-27T07:07:28.818Z,-0.87
2019-02-27T07:10:01.891Z,-0.44
2019-02-27T07:12:35.342Z,-0.39
2019-02-27T07:15:10.276Z,-0.50
2019-02-27T07:17:44.496Z,-0.30
2019-02-27T07:20:17.573Z,-0.16
2019-02-27T07:22:49.344Z,-0.21
2019-02-27T07:25:22.445Z,-0.14
2019-02-27T07:27:55.559Z,-0.09
2019-02-27T07:30:28.342Z,0.03
2019-02-27T07:33:00.842Z,0.17
2019-02-27T07:35:34.144Z,0.02
2019-02-27T07:38:07.141Z,0.06
2019-02-27T07:40:42.752Z,0.36
2019-02-27T07:43:14.422Z,0.80
2019-02-27T07:45:56.086Z,0.82
2019-02-27T07:48:29.458Z,0.98
2019-02-27T07:52:06.961Z,1.07
2019-02-27T07:54:50.467Z,1.17
2019-02-27T07:57:23.003Z,1.64
2019-02-27T07:59:56.830Z,1.96
2019-02-27T08:02:29.901Z,2.06
2019-02-27T08:05:02.170Z,2.14
2019-02-27T08:07:35.967Z,2.11
2019-02-27T08:10:12.283Z,2.05
2019-02-27T08:12:45.353Z,2.32
2019-02-27T08:15:18.041Z,2.65
2019-02-27T08:17:51.118Z,2.95
2019-02-27T08:20:23.590Z,3.04
2019-02-27T08:22:57.967Z,3.08
2019-02-27T08:25:30.489Z,3.47
2019-02-27T08:28:03.222Z,3.57
2019-02-27T08:30:35.954Z,3.47
2019-02-27T08:33:09.343Z,3.59
2019-02-27T08:35:41.884Z,3.68
2019-02-27T08:38:15.439Z,4.03
2019-02-27T08:40:48.286Z,4.21
2019-02-27T08:43:21.143Z,4.09
2019-02-27T08:45:54.279Z,4.16
2019-02-27T08:48:25.726Z,4.29
2019-02-27T08:50:58.640Z,4.35
2019-02-27T08:53:30.512Z,4.64
2019-02-27T08:56:03.179Z,4.89
2019-02-27T08:58:36.860Z,4.98
2019-02-27T09:01:11.587Z,5.43
2019-02-27T09:03:44.982Z,5.44
2019-02-27T09:06:18.731Z,5.55
2019-02-27T09:08:51.415Z,6.01
2019-02-27T09:11:23.821Z,6.07
2019-02-27T09:13:56.843Z,6.31
2019-02-27T09:16:29.589Z,6.44
2019-02-27T09:19:02.312Z,6.51
2019-02-27T09:21:35.325Z,6.87
2019-02-27T09:24:08.117Z,6.91
2019-02-27T09:26:42.339Z,6.95
2019-02-27T09:29:18.591Z,7.29
2019-02-27T09:31:51.205Z,7.27
2019-02-27T09:34:26.651Z,6.86
2019-02-27T09:36:59.097Z,7.12
2019-02-27T09:39:32.565Z,7.53
2019-02-27T09:42:05.127Z,7.65
2019-02-27T09:44:38.185Z,7.83
2019-02-27T09:47:10.676Z,7.75
2019-02-27T09:49:43.863Z,8.16
2019-02-27T09:52:16.592Z,8.32
2019-02-27T09:54:50.115Z,8.76
2019-02-27T09:57:24.124Z,8.84
2019-02-27T09:59:57.551Z,9.11
2019-02-27T10:02:30.080Z,9.17
2019-02-27T10:05:03.780Z,9.26
2019-02-27T10:07:37.810Z,9.64
2019-02-27T10:10:11.039Z,9.96
2019-02-27T10:12:43.969Z,10.16
2019-02-27T10:15:17.090Z,10.61
2019-02-27T10:17:49.554Z,11.01
2019-02-27T10:20:22.630Z,10.93
2019-02-27T10:22:55.641Z,11.36
2019-02-27T10:25:28.160Z,11.60
2019-02-27T10:28:04.315Z,12.09
2019-02-27T10:30:37.237Z,11.58
2019-02-27T10:33:11.114Z,12.13
2019-02-27T10:35:44.419Z,12.23
2019-02-27T10:38:17.203Z,11.98
2019-02-27T10:40:50.575Z,12.64
2019-02-27T10:43:24.461Z,12.86
2019-02-27T10:45:57.414Z,13.05
2019-02-27T10:48:31.130Z,13.13
2019-02-27T10:51:03.795Z,12.79
2019-02-27T10:53:37.582Z,13.41
2019-02-27T10:56:10.233Z,13.98
2019-02-27T10:58:45.026Z,14.11
2019-02-27T11:01:18.608Z,14.67
2019-02-27T11:03:51.699Z,14.35
2019-02-27T11:06:33.483Z,14.44
2019-02-27T11:09:04.473Z,15.11
2019-02-27T11:11:35.016Z,15.33
2019-02-27T11:14:07.061Z,15.66
2019-02-27T11:16:39.787Z,16.18
2019-02-27T11:19:14.136Z,15.85
2019-02-27T11:21:45.875Z,15.72
2019-02-27T11:24:17.645Z,16.91
2019-02-27T11:26:49.975Z,16.44
2019-02-27T11:29:23.836Z,17.07
2019-02-27T11:31:57.484Z,16.56
2019-02-27T11:34:31.292Z,16.09
2019-02-27T11:37:04.416Z,16.74
2019-02-27T11:39:37.927Z,17.48
2019-02-27T11:42:11.681Z,16.35
2019-02-27T11:44:49.466Z,16.84
2019-02-27T11:47:19.223Z,17.06
2019-02-27T11:49:52.622Z,16.98
2019-02-27T11:52:28.679Z,18.44
2019-02-27T11:55:00.537Z,17.83
2019-02-27T11:57:33.613Z,17.82
2019-02-27T12:00:08.052Z,18.67
2019-02-27T12:02:40.315Z,19.43
2019-02-27T12:05:14.765Z,17.63
2019-02-27T12:07:50.572Z,18.33
2019-02-27T12:10:24.073Z,19.46
2019-02-27T12:13:00.731Z,19.77
2019-02-27T12:15:32.107Z,19.69
2019-02-27T12:18:05.423Z,18.64
2019-02-27T12:20:39.088Z,19.39
2019-02-27T12:23:12.007Z,18.47
2019-02-27T12:25:45.438Z,18.60
2019-02-27T12:28:19.670Z,20.69
2019-02-27T12:30:52.777Z,19.96
2019-02-27T12:33:29.214Z,20.03
2019-02-27T12:36:00.701Z,21.27
2019-02-27T12:38:34.383Z,21.19
2019-02-27T12:41:07.465Z,20.14
2019-02-27T12:43:39.921Z,20.64
2019-02-27T12:46:13.661Z,19.59
2019-02-27T12:48:47.089Z,20.66
2019-02-27T12:51:21.093Z,20.45
2019-02-27T12:53:54.616Z,18.95
2019-02-27T12:56:28.442Z,21.21
2019-02-27T12:59:01.394Z,21.31
2019-02-27T13:01:33.865Z,20.90
2019-02-27T13:04:07.297Z,20.97
2019-02-27T13:06:39.422Z,21.08
2019-02-27T13:09:12.522Z,21.48
2019-02-27T13:11:46.364Z,21.73
2019-02-27T13:14:19.670Z,21.67
2019-02-27T13:16:52.372Z,20.78
2019-02-27T13:19:24.374Z,21.29
2019-02-27T13:21:57.008Z,21.73
2019-02-27T13:24:30.042Z,22.48
2019-02-27T13:27:03.720Z,21.54
2019-02-27T13:29:37.835Z,22.30
2019-02-27T13:32:10.828Z,21.85
2019-02-27T13:34:45.342Z,21.56
2019-02-27T13:37:18.776Z,22.04
2019-02-27T13:39:51.953Z,22.19
2019-02-27T13:42:24.326Z,22.26
2019-02-27T13:44:57.595Z,21.73
2019-02-27T13:47:31.677Z,22.19
2019-02-27T13:50:04.391Z,22.25
2019-02-27T13:52:37.096Z,21.96
2019-02-27T13:55:11.144Z,22.74
2019-02-27T13:57:45.340Z,22.60
2019-02-27T14:00:27.884Z,21.92
2019-02-27T14:03:01.679Z,23.05
2019-02-27T14:05:36.151Z,21.59
2019-02-27T14:08:09.420Z,21.87
2019-02-27T14:10:42.398Z,23.21
2019-02-27T14:13:15.874Z,23.25
2019-02-27T14:15:49.380Z,22.29
2019-02-27T14:18:22.053Z,22.32
2019-02-27T14:20:54.005Z,22.06
2019-02-27T14:23:27.314Z,21.71
2019-02-27T14:26:00.081Z,21.53
2019-02-27T14:28:32.831Z,22.05
2019-02-27T14:31:09.066Z,21.87
2019-02-27T14:33:40.499Z,21.43
2019-02-27T14:36:15.460Z,20.99
2019-02-27T14:38:48.537Z,21.96
2019-02-27T14:41:21.608Z,21.86
2019-02-27T14:43:57.637Z,21.72
2019-02-27T14:46:29.670Z,21.42
2019-02-27T14:49:02.717Z,21.54
2019-02-27T14:51:35.511Z,21.31
2019-02-27T14:54:08.767Z,21.33
2019-02-27T14:56:42.705Z,20.80
2019-02-27T14:59:16.256Z,20.35
2019-02-27T15:01:49.439Z,21.47
2019-02-27T15:04:22.453Z,21.16
2019-02-27T15:06:55.842Z,21.14
2019-02-27T15:09:36.512Z,22.05
2019-02-27T15:12:10.291Z,21.37
2019-02-27T15:14:43.083Z,21.24
2019-02-27T15:17:15.887Z,22.04
2019-02-27T15:19:47.728Z,21.89
2019-02-27T15:22:21.255Z,21.58
2019-02-27T15:24:53.612Z,21.87
2019-02-27T15:27:27.650Z,21.90
2019-02-27T15:30:01.298Z,21.76
2019-02-27T15:32:33.689Z,21.94
2019-02-27T15:35:08.153Z,22.24
2019-02-27T15:37:41.669Z,22.59
2019-02-27T15:40:17.422Z,21.34
2019-02-27T15:42:49.976Z,21.96
2019-02-27T15:45:23.349Z,22.13
2019-02-27T15:47:56.417Z,21.42
2019-02-27T15:50:29.003Z,20.34
2019-02-27T15:53:00.964Z,19.71
2019-02-27T15:55:35.229Z,19.09
2019-02-27T15:58:08.529Z,18.90
2019-02-27T16:00:41.334Z,18.62
2019-02-27T16:03:14.183Z,17.96
2019-02-27T16:05:46.557Z,17.53
2019-02-27T16:08:20.199Z,17.14
2019-02-27T16:10:55.253Z,17.21
2019-02-27T16:13:28.417Z,17.08
2019-02-27T16:16:01.522Z,16.37
2019-02-27T16:18:36.949Z,16.28
2019-02-27T16:21:09.443Z,15.83
2019-02-27T16:23:41.200Z,15.98
2019-02-27T16:26:14.270Z,15.98
2019-02-27T16:28:48.993Z,15.88
2019-02-27T16:31:23.747Z,15.69
2019-02-27T16:33:58.538Z,15.21
2019-02-27T16:36:36.241Z,15.21
2019-02-27T16:39:09.911Z,15.05
2019-02-27T16:41:45.156Z,14.81
2019-02-27T16:44:21.511Z,14.80
2019-02-27T16:46:52.442Z,14.51
2019-02-27T16:49:25.000Z,14.21
2019-02-27T16:51:57.878Z,13.78
2019-02-27T16:54:31.885Z,13.69
2019-02-27T16:57:05.417Z,13.52
2019-02-27T16:59:39.206Z,13.54
2019-02-27T17:02:11.909Z,13.40
2019-02-27T17:04:45.608Z,13.19
2019-02-27T17:07:18.868Z,12.74
2019-02-27T17:09:50.605Z,12.36
2019-02-27T17:12:23.499Z,12.20
2019-02-27T17:14:58.636Z,12.10
2019-02-27T17:17:31.828Z,11.90
2019-02-27T17:20:04.765Z,11.83
2019-02-27T17:22:37.891Z,11.55
2019-02-27T17:25:12.142Z,11.37
2019-02-27T17:27:49.819Z,11.14
2019-02-27T17:30:25.728Z,10.76
2019-02-27T17:33:01.446Z,10.07
2019-02-27T17:35:33.953Z,9.85
2019-02-27T17:38:06.879Z,9.90
2019-02-27T17:40:41.655Z,10.03
2019-02-27T17:43:14.323Z,9.86
2019-02-27T17:45:48.048Z,9.59
2019-02-27T17:48:21.145Z,9.38
2019-02-27T17:50:53.872Z,9.41
2019-02-27T17:53:26.787Z,9.32
2019-02-27T17:55:59.881Z,9.24
2019-02-27T17:58:34.852Z,9.21
2019-02-27T18:01:07.408Z,9.09
2019-02-27T18:03:41.847Z,8.98
2019-02-27T18:06:15.144Z,8.72
2019-02-27T18:08:51.562Z,8.51
2019-02-27T18:11:23.146Z,8.42
2019-02-27T18:13:56.159Z,8.24
2019-02-27T18:16:29.945Z,8.22
2019-02-27T18:19:07.027Z,8.14
2019-02-27T18:21:40.027Z,8.01
2019-02-27T18:24:13.730Z,7.88
2019-02-27T18:26:50.221Z,7.77
2019-02-27T18:29:22.526Z,7.61
2019-02-27T18:31:58.712Z,7.47
2019-02-27T18:34:31.068Z,7.25
2019-02-27T18:37:05.106Z,7.18
2019-02-27T18:39:38.699Z,6.86
2019-02-27T18:42:12.146Z,6.79
2019-02-27T18:44:44.019Z,6.73
2019-02-27T18:47:16.717Z,6.67
2019-02-27T18:49:52.295Z,6.36
2019-02-27T18:52:24.834Z,6.38
2019-02-27T18:54:57.854Z,6.39
2019-02-27T18:57:29.732Z,6.14
2019-02-27T19:00:03.278Z,6.08
2019-02-27T19:02:36.324Z,6.07
2019-02-27T19:05:10.108Z,6.04
2019-02-27T19:07:43.620Z,5.99
2019-02-27T19:10:15.625Z,5.92
2019-02-27T19:12:48.393Z,5.80
2019-02-27T19:15:22.555Z,5.68
2019-02-27T19:17:55.334Z,5.55
2019-02-27T19:20:30.071Z,5.49
2019-02-27T19:23:03.490Z,5.32
2019-02-27T19:25:36.638Z,5.26
2019-02-27T19:28:09.968Z,5.24
2019-02-27T19:30:42.934Z,5.22
2019-02-27T19:33:16.326Z,5.18
2019-02-27T19:35:50.426Z,5.12
2019-02-27T19:38:24.702Z,5.07
2019-02-27T19:40:58.287Z,4.97
2019-02-27T19:43:29.940Z,4.87
2019-02-27T19:46:02.599Z,4.79
2019-02-27T19:48:35.320Z,4.63
2019-02-27T19:51:08.050Z,4.62
2019-02-27T19:53:42.751Z,4.61
2019-02-27T19:56:16.610Z,4.58
2019-02-27T19:58:53.585Z,4.52
2019-02-27T20:01:34.978Z,4.40
2019-02-27T20:04:09.605Z,4.31
2019-02-27T20:06:45.206Z,4.29
2019-02-27T20:09:20.531Z,4.14
2019-02-27T20:11:55.775Z,4.05
2019-02-27T20:14:29.525Z,3.90
2019-02-27T20:17:04.750Z,3.78
2019-02-27T20:19:37.490Z,3.76
2019-02-27T20:22:15.479Z,3.72
2019-02-27T20:24:46.964Z,3.68
2019-02-27T20:27:19.068Z,3.63
2019-02-27T20:29:53.276Z,3.57
2019-02-27T20:32:28.550Z,3.54
2019-02-27T20:35:02.170Z,3.46
2019-02-27T20:37:41.464Z,3.62
2019-02-27T20:40:15.864Z,3.62
2019-02-27T20:42:52.092Z,3.62
2019-02-27T20:45:26.610Z,3.59
2019-02-27T20:48:02.528Z,3.50
2019-02-27T20:50:39.962Z,3.45
2019-02-27T20:53:13.503Z,3.43
2019-02-27T20:55:46.246Z,3.38
2019-02-27T20:58:22.015Z,3.35
2019-02-27T21:00:54.844Z,3.28
2019-02-27T21:03:28.070Z,3.13
2019-02-27T21:06:01.820Z,3.12
2019-02-27T21:08:36.100Z,3.01
2019-02-27T21:11:11.905Z,3.05
2019-02-27T21:13:49.595Z,2.95
2019-02-27T21:16:22.689Z,2.74
2019-02-27T21:18:56.094Z,2.74
2019-02-27T21:21:29.747Z,2.74
2019-02-27T21:24:06.239Z,2.83
2019-02-27T21:26:38.603Z,2.72
2019-02-27T21:29:12.356Z,2.71
2019-02-27T21:31:45.760Z,2.70
2019-02-27T21:34:20.042Z,2.66
2019-02-27T21:36:52.611Z,2.50
2019-02-27T21:39:25.376Z,2.48
2019-02-27T21:41:58.996Z,2.46
2019-02-27T21:44:31.599Z,2.43
2019-02-27T21:47:04.958Z,2.38
2019-02-27T21:49:39.841Z,2.30
2019-02-27T21:52:14.562Z,2.49
2019-02-27T21:54:48.157Z,2.48
2019-02-27T21:57:19.186Z,2.41
2019-02-27T21:59:52.253Z,2.17
2019-02-27T22:02:27.291Z,2.18
2019-02-27T22:05:00.302Z,2.08
2019-02-27T22:07:34.297Z,1.99
2019-02-27T22:10:09.601Z,1.85
2019-02-27T22:12:43.818Z,1.83
2019-02-27T22:15:22.986Z,1.83
2019-02-27T22:17:56.156Z,1.81
2019-02-27T22:20:28.964Z,1.75
2019-02-27T22:23:03.365Z,1.76
2019-02-27T22:25:36.066Z,1.68
2019-02-27T22:28:09.516Z,1.70
2019-02-27T22:30:42.227Z,1.63
2019-02-27T22:33:23.036Z,1.56
2019-02-27T22:36:02.225Z,1.53
2019-02-27T22:38:37.824Z,1.46
2019-02-27T22:41:11.103Z,1.47
2019-02-27T22:43:44.606Z,1.43
2019-02-27T22:46:17.669Z,1.42
2019-02-27T22:48:50.634Z,1.32
2019-02-27T22:51:23.288Z,1.26
2019-02-27T22:53:55.898Z,1.33
2019-02-27T22:56:29.191Z,1.33
2019-02-27T22:59:02.946Z,1.29
2019-02-27T23:01:51.746Z,1.33
2019-02-27T23:04:25.062Z,1.17
2019-02-27T23:06:57.493Z,1.11
2019-02-27T23:09:30.341Z,1.07
2019-02-27T23:12:02.887Z,1.14
2019-02-27T23:14:35.275Z,1.06
2019-02-27T23:17:07.862Z,1.00
2019-02-27T23:19:40.397Z,0.94
2019-02-27T23:22:12.876Z,0.94
2019-02-27T23:24:45.584Z,0.95
2019-02-27T23:27:18.132Z,0.88
2019-02-27T23:29:50.681Z,0.78
2019-02-27T23:32:28.414Z,0.70
2019-02-27T23:34:58.209Z,0.72
2019-02-27T23:37:29.703Z,0.66
2019-02-27T23:40:02.839Z,0.67
2019-02-27T23:42:36.683Z,0.68
2019-02-27T23:45:10.095Z,0.62
2019-02-27T23:47:43.215Z,0.56
2019-02-27T23:50:15.648Z,0.52
2019-02-27T23:52:49.380Z,0.56
2019-02-27T23:55:23.663Z,0.46
2019-02-27T23:57:58.573Z,0.43
